createdAt,value
2019-05-02T00:00:18.129Z,8.65
2019-05-02T00:02:46.349Z,8.66
2019-05-02T00:05:15.970Z,8.66
2019-05-02T00:07:44.187Z,8.63
2019-05-02T00:10:14.091Z,8.64
2019-05-02T00:12:43.041Z,8.63
2019-05-02T00:15:11.258Z,8.62
2019-05-02T00:17:39.798Z,8.63
2019-05-02T00:20:08.060Z,8.66
2019-05-02T00:22:36.341Z,8.68
2019-05-02T00:25:06.207Z,8.71
2019-05-02T00:27:37.798Z,8.71
2019-05-02T00:30:07.051Z,8.73
2019-05-02T00:32:35.261Z,8.74
2019-05-02T00:35:04.142Z,8.76
2019-05-02T00:37:32.666Z,8.79
2019-05-02T00:40:00.884Z,8.78
2019-05-02T00:42:29.114Z,8.76
2019-05-02T00:44:57.318Z,8.76
2019-05-02T00:47:29.871Z,8.75
2019-05-02T00:49:58.086Z,8.74
2019-05-02T00:52:26.306Z,8.75
2019-05-02T00:54:54.945Z,8.74
2019-05-02T00:57:24.451Z,8.74
2019-05-02T00:59:52.985Z,8.71
2019-05-02T01:02:23.216Z,8.67
2019-05-02T01:04:51.695Z,8.64
2019-05-02T01:07:25.030Z,8.61
2019-05-02T01:09:50.234Z,8.59
2019-05-02T01:12:26.083Z,8.55
2019-05-02T01:14:48.435Z,8.52
2019-05-02T01:17:16.819Z,8.51
2019-05-02T01:19:47.309Z,8.50
2019-05-02T01:22:16.259Z,8.50
2019-05-02T01:24:45.464Z,8.47
2019-05-02T01:27:23.885Z,8.46
2019-05-02T01:30:11.844Z,8.43
2019-05-02T01:32:41.710Z,8.46
2019-05-02T01:35:14.547Z,8.46
2019-05-02T01:38:00.533Z,8.46
2019-05-02T01:40:28.997Z,8.47
2019-05-02T01:42:57.290Z,8.47
2019-05-02T01:45:25.858Z,8.48
2019-05-02T01:47:54.058Z,8.49
2019-05-02T01:50:22.274Z,8.50
2019-05-02T01:52:53.750Z,8.51
2019-05-02T01:55:21.254Z,8.54
2019-05-02T01:57:50.589Z,8.54
2019-05-02T02:00:18.818Z,8.52
2019-05-02T02:02:47.031Z,8.52
2019-05-02T02:05:15.237Z,8.52
2019-05-02T02:07:43.462Z,8.52
2019-05-02T02:10:14.900Z,8.50
2019-05-02T02:13:02.210Z,8.47
2019-05-02T02:15:11.551Z,8.44
2019-05-02T02:17:40.145Z,8.43
2019-05-02T02:20:14.143Z,8.46
2019-05-02T02:22:59.866Z,8.46
2019-05-02T02:25:32.238Z,8.46
2019-05-02T02:28:01.065Z,8.46
2019-05-02T02:30:29.560Z,8.42
2019-05-02T02:33:00.730Z,8.38
2019-05-02T02:35:28.533Z,8.36
2019-05-02T02:37:56.769Z,8.37
2019-05-02T02:40:32.781Z,8.39
2019-05-02T02:42:55.241Z,8.42
2019-05-02T02:45:29.871Z,8.46
2019-05-02T02:47:59.846Z,8.45
2019-05-02T02:50:28.304Z,8.42
2019-05-02T02:52:56.515Z,8.40
2019-05-02T02:55:25.032Z,8.42
2019-05-02T02:57:58.384Z,8.41
2019-05-02T03:00:23.227Z,8.45
2019-05-02T03:02:51.439Z,8.44
2019-05-02T03:05:25.863Z,8.46
2019-05-02T03:07:49.926Z,8.49
2019-05-02T03:10:18.450Z,8.52
2019-05-02T03:12:48.363Z,8.54
2019-05-02T03:15:20.898Z,8.55
2019-05-02T03:17:48.194Z,8.58
2019-05-02T03:20:16.417Z,8.59
2019-05-02T03:22:44.638Z,8.61
2019-05-02T03:25:18.035Z,8.63
2019-05-02T03:27:43.579Z,8.63
2019-05-02T03:30:28.764Z,8.64
2019-05-02T03:33:02.835Z,8.65
2019-05-02T03:35:18.013Z,8.70
2019-05-02T03:37:44.870Z,8.73
2019-05-02T03:40:11.974Z,8.75
2019-05-02T03:42:44.737Z,8.78
2019-05-02T03:45:10.299Z,8.81
2019-05-02T03:47:43.691Z,8.84
2019-05-02T03:50:09.762Z,8.83
2019-05-02T03:52:43.916Z,8.82
2019-05-02T03:55:08.235Z,8.81
2019-05-02T03:57:39.469Z,8.85
2019-05-02T04:00:13.822Z,8.85
2019-05-02T04:02:37.547Z,8.86
2019-05-02T04:05:06.639Z,8.85
2019-05-02T04:07:40.588Z,8.85
2019-05-02T04:10:13.463Z,8.88
2019-05-02T04:12:37.919Z,8.90
2019-05-02T04:15:09.608Z,8.91
2019-05-02T04:17:37.393Z,8.96
2019-05-02T04:20:09.641Z,8.98
2019-05-02T04:22:42.783Z,9.01
2019-05-02T04:25:07.659Z,9.03
2019-05-02T04:27:36.490Z,9.05
2019-05-02T04:30:11.157Z,9.06
2019-05-02T04:32:36.242Z,9.08
2019-05-02T04:35:05.468Z,9.10
2019-05-02T04:37:34.388Z,9.11
2019-05-02T04:40:11.833Z,9.11
2019-05-02T04:42:39.170Z,9.10
2019-05-02T04:45:21.697Z,9.14
2019-05-02T04:47:39.004Z,9.16
2019-05-02T04:50:17.641Z,9.19
2019-05-02T04:52:46.861Z,9.23
2019-05-02T04:55:20.052Z,9.28
2019-05-02T04:57:46.757Z,9.32
2019-05-02T05:00:11.596Z,9.36
2019-05-02T05:02:39.993Z,9.39
2019-05-02T05:05:08.271Z,9.41
2019-05-02T05:07:41.010Z,9.45
2019-05-02T05:10:08.373Z,9.50
2019-05-02T05:12:38.046Z,9.53
2019-05-02T05:15:07.858Z,9.56
2019-05-02T05:17:37.530Z,9.59
2019-05-02T05:20:13.708Z,9.60
2019-05-02T05:22:44.364Z,9.60
2019-05-02T05:25:12.314Z,9.59
2019-05-02T05:27:38.804Z,9.60
2019-05-02T05:30:14.791Z,9.60
2019-05-02T05:32:37.638Z,9.60
2019-05-02T05:35:09.091Z,9.61
2019-05-02T05:37:38.201Z,9.61
2019-05-02T05:40:08.372Z,9.62
2019-05-02T05:42:37.937Z,9.63
2019-05-02T05:45:09.774Z,9.64
2019-05-02T05:47:37.848Z,9.66
2019-05-02T05:50:08.131Z,9.69
2019-05-02T05:52:38.708Z,9.71
2019-05-02T05:55:07.842Z,9.73
2019-05-02T05:57:38.335Z,9.76
2019-05-02T06:00:11.447Z,9.78
2019-05-02T06:02:52.709Z,9.82
2019-05-02T06:05:08.072Z,9.88
2019-05-02T06:07:41.908Z,9.95
2019-05-02T06:10:07.955Z,9.96
2019-05-02T06:12:36.195Z,9.95
2019-05-02T06:15:05.838Z,9.97
2019-05-02T06:17:34.055Z,9.99
2019-05-02T06:20:02.271Z,10.01
2019-05-02T06:22:30.487Z,10.05
2019-05-02T06:24:58.725Z,10.08
2019-05-02T06:27:30.409Z,10.13
2019-05-02T06:29:57.384Z,10.16
2019-05-02T06:32:25.590Z,10.19
2019-05-02T06:34:53.874Z,10.21
2019-05-02T06:37:22.091Z,10.26
2019-05-02T06:39:50.325Z,10.30
2019-05-02T06:42:18.552Z,10.33
2019-05-02T06:44:46.921Z,10.34
2019-05-02T06:47:15.224Z,10.34
2019-05-02T06:49:43.637Z,10.28
2019-05-02T06:52:11.939Z,10.38
2019-05-02T06:54:40.204Z,10.38
2019-05-02T06:57:08.435Z,10.36
2019-05-02T06:59:36.644Z,10.33
2019-05-02T07:02:05.298Z,10.34
2019-05-02T07:04:33.781Z,10.33
2019-05-02T07:07:02.002Z,10.29
2019-05-02T07:09:40.570Z,10.18
2019-05-02T07:12:01.627Z,10.18
2019-05-02T07:14:30.004Z,10.20
2019-05-02T07:17:15.982Z,10.22
2019-05-02T07:19:51.607Z,10.25
2019-05-02T07:22:19.934Z,10.35
2019-05-02T07:24:48.144Z,10.42
2019-05-02T07:27:16.362Z,10.42
2019-05-02T07:29:44.637Z,10.40
2019-05-02T07:32:13.285Z,10.36
2019-05-02T07:34:44.321Z,10.31
2019-05-02T07:37:12.599Z,10.25
2019-05-02T07:39:42.262Z,10.26
2019-05-02T07:42:10.535Z,10.33
2019-05-02T07:44:38.743Z,10.44
2019-05-02T07:47:06.967Z,10.55
2019-05-02T07:49:35.188Z,10.65
2019-05-02T07:52:03.699Z,10.72
2019-05-02T07:54:32.001Z,10.75
2019-05-02T07:57:02.305Z,10.74
2019-05-02T07:59:30.662Z,10.72
2019-05-02T08:01:58.869Z,10.64
2019-05-02T08:04:27.107Z,10.57
2019-05-02T08:06:55.429Z,10.46
2019-05-02T08:09:23.634Z,10.38
2019-05-02T08:11:51.931Z,10.32
2019-05-02T08:14:20.145Z,10.31
2019-05-02T08:16:48.357Z,10.26
2019-05-02T08:19:16.630Z,10.20
2019-05-02T08:21:44.845Z,10.22
2019-05-02T08:24:13.066Z,10.23
2019-05-02T08:26:53.377Z,10.23
2019-05-02T08:29:23.397Z,10.24
2019-05-02T08:31:51.802Z,10.27
2019-05-02T08:34:22.000Z,10.27
2019-05-02T08:36:50.240Z,10.26
2019-05-02T08:39:18.545Z,10.24
2019-05-02T08:41:51.378Z,10.25
2019-05-02T08:44:18.020Z,10.25
2019-05-02T08:46:51.439Z,10.22
2019-05-02T08:49:18.760Z,10.17
2019-05-02T08:51:46.815Z,10.19
2019-05-02T08:54:15.128Z,10.20
2019-05-02T08:56:43.350Z,10.19
2019-05-02T08:59:11.949Z,10.19
2019-05-02T09:01:40.546Z,10.17
2019-05-02T09:04:09.010Z,10.13
2019-05-02T09:06:37.583Z,10.10
2019-05-02T09:09:08.109Z,10.11
2019-05-02T09:11:37.166Z,10.08
2019-05-02T09:14:05.684Z,10.08
2019-05-02T09:16:33.914Z,10.05
2019-05-02T09:19:02.742Z,10.03
2019-05-02T09:21:35.733Z,10.07
2019-05-02T09:24:02.520Z,10.12
2019-05-02T09:26:36.146Z,10.19
2019-05-02T09:29:05.297Z,10.23
2019-05-02T09:31:31.944Z,10.28
2019-05-02T09:34:02.532Z,10.30
2019-05-02T09:36:32.286Z,10.27
2019-05-02T09:39:02.522Z,10.20
2019-05-02T09:41:34.486Z,10.22
2019-05-02T09:44:02.738Z,10.17
2019-05-02T09:46:32.458Z,10.19
2019-05-02T09:49:02.468Z,10.20
2019-05-02T09:51:32.506Z,10.19
2019-05-02T09:54:02.599Z,10.18
2019-05-02T09:56:32.534Z,10.19
2019-05-02T09:59:06.154Z,10.22
2019-05-02T10:01:32.244Z,10.22
2019-05-02T10:04:02.255Z,10.20
2019-05-02T10:06:32.121Z,10.24
2019-05-02T10:09:02.638Z,10.26
2019-05-02T10:11:32.188Z,10.34
2019-05-02T10:14:02.353Z,10.39
2019-05-02T10:16:31.943Z,10.44
2019-05-02T10:19:09.251Z,10.48
2019-05-02T10:21:31.822Z,10.52
2019-05-02T10:24:01.696Z,10.58
2019-05-02T10:26:32.852Z,10.61
2019-05-02T10:29:02.046Z,10.64
2019-05-02T10:31:35.795Z,10.65
2019-05-02T10:34:02.239Z,10.65
2019-05-02T10:36:32.393Z,10.67
2019-05-02T10:39:01.757Z,10.70
2019-05-02T10:41:33.475Z,10.76
2019-05-02T10:44:02.199Z,10.86
2019-05-02T10:46:37.394Z,10.92
2019-05-02T10:49:06.486Z,10.98
2019-05-02T10:51:34.705Z,11.05
2019-05-02T10:54:04.771Z,11.13
2019-05-02T10:56:33.080Z,11.19
2019-05-02T10:59:02.266Z,11.21
2019-05-02T11:01:32.396Z,11.23
2019-05-02T11:04:04.919Z,11.24
2019-05-02T11:06:37.129Z,11.26
2019-05-02T11:09:06.306Z,11.29
2019-05-02T11:11:33.729Z,11.33
2019-05-02T11:14:05.904Z,11.33
2019-05-02T11:16:37.991Z,11.33
2019-05-02T11:19:13.883Z,11.32
2019-05-02T11:21:53.588Z,11.30
2019-05-02T11:24:14.315Z,11.28
2019-05-02T11:26:42.919Z,11.29
2019-05-02T11:29:12.156Z,11.30
2019-05-02T11:31:42.582Z,11.31
2019-05-02T11:34:12.347Z,11.35
2019-05-02T11:36:42.006Z,11.43
2019-05-02T11:39:18.255Z,11.46
2019-05-02T11:41:42.235Z,11.47
2019-05-02T11:44:12.142Z,11.50
2019-05-02T11:46:43.052Z,11.55
2019-05-02T11:49:12.271Z,11.67
2019-05-02T11:51:42.173Z,11.72
2019-05-02T11:54:12.714Z,11.76
2019-05-02T11:56:48.223Z,11.76
2019-05-02T11:59:14.425Z,11.83
2019-05-02T12:01:42.688Z,11.97
2019-05-02T12:04:12.973Z,12.16
2019-05-02T12:06:42.242Z,12.40
2019-05-02T12:09:13.302Z,12.56
2019-05-02T12:11:41.862Z,12.62
2019-05-02T12:14:12.303Z,12.69
2019-05-02T12:16:40.639Z,12.74
2019-05-02T12:19:12.122Z,12.81
2019-05-02T12:21:39.326Z,12.93
2019-05-02T12:24:07.933Z,13.07
2019-05-02T12:26:36.403Z,13.27
2019-05-02T12:29:05.086Z,13.47
2019-05-02T12:31:34.772Z,13.57
2019-05-02T12:34:04.370Z,13.66
2019-05-02T12:36:33.441Z,13.71
2019-05-02T12:39:02.476Z,13.65
2019-05-02T12:41:33.133Z,13.49
2019-05-02T12:44:02.282Z,13.32
2019-05-02T12:46:31.791Z,13.18
2019-05-02T12:49:00.121Z,13.09
2019-05-02T12:51:28.342Z,13.08
2019-05-02T12:53:56.562Z,13.11
2019-05-02T12:56:25.128Z,13.14
2019-05-02T12:58:53.619Z,13.14
2019-05-02T13:01:22.107Z,13.14
2019-05-02T13:03:52.090Z,13.18
2019-05-02T13:06:21.986Z,13.18
2019-05-02T13:08:52.522Z,13.13
2019-05-02T13:11:42.169Z,13.08
2019-05-02T13:14:16.773Z,13.21
2019-05-02T13:16:40.034Z,13.29
2019-05-02T13:19:09.086Z,13.31
2019-05-02T13:21:44.996Z,13.28
2019-05-02T13:24:30.121Z,13.21
2019-05-02T13:26:59.723Z,13.10
2019-05-02T13:29:29.330Z,13.00
2019-05-02T13:31:59.176Z,12.93
2019-05-02T13:34:31.806Z,12.92
2019-05-02T13:37:02.631Z,12.96
2019-05-02T13:39:32.688Z,12.94
2019-05-02T13:42:01.734Z,12.89
2019-05-02T13:44:32.681Z,12.86
2019-05-02T13:47:02.739Z,12.88
2019-05-02T13:49:32.432Z,12.91
2019-05-02T13:52:02.507Z,12.99
2019-05-02T13:54:33.075Z,13.15
2019-05-02T13:57:03.106Z,13.43
2019-05-02T13:59:33.605Z,13.43
2019-05-02T14:02:02.867Z,13.64
2019-05-02T14:04:32.667Z,13.84
2019-05-02T14:07:02.999Z,14.05
2019-05-02T14:09:32.703Z,14.21
2019-05-02T14:12:05.206Z,14.41
2019-05-02T14:14:33.435Z,14.54
2019-05-02T14:17:03.019Z,14.67
2019-05-02T14:19:31.892Z,14.83
2019-05-02T14:22:00.232Z,14.92
2019-05-02T14:24:28.458Z,14.95
2019-05-02T14:26:56.974Z,14.89
2019-05-02T14:29:25.208Z,14.76
2019-05-02T14:31:53.842Z,14.67
2019-05-02T14:34:40.133Z,14.68
2019-05-02T14:37:08.353Z,14.64
2019-05-02T14:39:36.569Z,14.64
2019-05-02T14:42:04.952Z,14.68
2019-05-02T14:45:01.521Z,14.74
2019-05-02T14:47:03.668Z,14.71
2019-05-02T14:49:32.262Z,14.59
2019-05-02T14:52:02.954Z,14.50
2019-05-02T14:54:32.441Z,14.36
2019-05-02T14:57:08.191Z,14.24
2019-05-02T14:59:36.392Z,14.17
2019-05-02T15:02:07.695Z,14.07
2019-05-02T15:04:38.177Z,14.07
2019-05-02T15:07:06.264Z,14.12
2019-05-02T15:09:36.376Z,14.20
2019-05-02T15:12:13.998Z,14.33
2019-05-02T15:14:34.678Z,14.36
2019-05-02T15:17:03.219Z,14.39
2019-05-02T15:19:33.003Z,14.43
2019-05-02T15:22:02.271Z,14.47
2019-05-02T15:24:33.282Z,14.39
2019-05-02T15:27:05.571Z,14.27
2019-05-02T15:29:32.111Z,14.20
2019-05-02T15:32:05.967Z,14.13
2019-05-02T15:34:46.278Z,14.05
2019-05-02T15:37:09.216Z,14.10
2019-05-02T15:42:07.360Z,14.10
2019-05-02T15:44:35.906Z,14.15
2019-05-02T15:47:06.859Z,14.22
2019-05-02T15:49:36.569Z,14.29
2019-05-02T15:52:05.711Z,14.20
2019-05-02T15:54:33.963Z,14.15
2019-05-02T15:57:05.436Z,14.09
2019-05-02T15:59:37.517Z,13.96
2019-05-02T16:02:05.933Z,13.83
2019-05-02T16:04:35.786Z,13.61
2019-05-02T16:07:06.954Z,13.38
2019-05-02T16:09:33.968Z,13.21
2019-05-02T16:12:03.123Z,12.98
2019-05-02T16:14:35.722Z,12.70
2019-05-02T16:17:03.814Z,12.50
2019-05-02T16:19:33.315Z,12.25
2019-05-02T16:22:06.848Z,11.97
2019-05-02T16:24:33.915Z,11.77
2019-05-02T16:27:02.164Z,11.66
2019-05-02T16:29:31.852Z,11.56
2019-05-02T16:32:08.076Z,11.44
2019-05-02T16:34:38.207Z,11.33
2019-05-02T16:37:13.296Z,11.24
2019-05-02T16:39:42.526Z,11.09
2019-05-02T16:42:12.440Z,10.93
2019-05-02T16:44:42.948Z,10.84
2019-05-02T16:47:13.641Z,10.77
2019-05-02T16:49:41.872Z,10.62
2019-05-02T16:52:10.229Z,10.50
2019-05-02T16:54:41.614Z,10.39
2019-05-02T16:57:08.400Z,10.27
2019-05-02T16:59:37.521Z,10.16
2019-05-02T17:02:08.026Z,10.08
2019-05-02T17:04:37.367Z,9.99
2019-05-02T17:07:07.324Z,9.95
2019-05-02T17:09:38.793Z,10.08
2019-05-02T17:12:11.945Z,10.29
2019-05-02T17:14:38.349Z,10.45
2019-05-02T17:17:06.647Z,10.46
2019-05-02T17:19:34.986Z,10.48
2019-05-02T17:22:03.414Z,10.53
2019-05-02T17:24:32.292Z,10.60
2019-05-02T17:27:02.515Z,10.62
2019-05-02T17:29:31.746Z,10.62
2019-05-02T17:32:02.061Z,10.64
2019-05-02T17:34:32.577Z,10.61
2019-05-02T17:37:06.296Z,10.59
2019-05-02T17:39:29.973Z,10.58
2019-05-02T17:42:00.462Z,10.53
2019-05-02T17:44:28.468Z,10.34
2019-05-02T17:46:58.340Z,10.16
2019-05-02T17:49:34.869Z,10.05
2019-05-02T17:52:19.085Z,9.94
2019-05-02T17:54:44.591Z,9.85
2019-05-02T17:57:12.841Z,9.77
2019-05-02T17:59:42.229Z,9.73
2019-05-02T18:02:12.366Z,9.70
2019-05-02T18:04:41.941Z,9.69
2019-05-02T18:07:11.688Z,9.64
2019-05-02T18:09:41.862Z,9.62
2019-05-02T18:12:12.636Z,9.59
2019-05-02T18:14:42.117Z,9.58
2019-05-02T18:17:12.625Z,9.54
2019-05-02T18:19:42.544Z,9.52
2019-05-02T18:22:21.097Z,9.52
2019-05-02T18:24:44.753Z,9.10
2019-05-02T18:27:12.725Z,9.47
2019-05-02T18:29:42.659Z,9.50
2019-05-02T18:32:12.758Z,9.48
2019-05-02T18:34:41.834Z,9.46
2019-05-02T18:37:10.207Z,9.45
2019-05-02T18:39:44.733Z,9.44
2019-05-02T18:42:09.255Z,9.42
2019-05-02T18:44:37.749Z,9.36
2019-05-02T18:47:05.965Z,9.31
2019-05-02T18:49:34.239Z,9.23
2019-05-02T18:52:02.884Z,9.16
2019-05-02T18:54:31.089Z,9.12
2019-05-02T18:56:59.455Z,9.10
2019-05-02T18:59:28.030Z,9.06
2019-05-02T19:01:59.359Z,9.04
2019-05-02T19:04:35.277Z,9.02
2019-05-02T19:06:56.210Z,9.02
2019-05-02T19:09:29.891Z,8.98
2019-05-02T19:12:05.022Z,8.95
2019-05-02T19:14:25.914Z,8.93
2019-05-02T19:16:58.091Z,8.91
2019-05-02T19:19:27.422Z,8.89
2019-05-02T19:21:54.279Z,8.90
2019-05-02T19:24:27.416Z,8.89
2019-05-02T19:26:56.359Z,8.92
2019-05-02T19:29:28.968Z,8.91
2019-05-02T19:31:57.444Z,8.89
2019-05-02T19:34:27.075Z,8.87
2019-05-02T19:36:58.031Z,8.87
2019-05-02T19:39:26.183Z,8.84
2019-05-02T19:41:54.382Z,8.85
2019-05-02T19:44:29.138Z,8.83
2019-05-02T19:46:53.118Z,8.81
2019-05-02T19:49:23.095Z,8.79
2019-05-02T19:51:56.502Z,8.79
2019-05-02T19:54:22.020Z,8.79
2019-05-02T19:56:52.184Z,8.78
2019-05-02T19:59:24.588Z,8.77
2019-05-02T20:01:52.208Z,8.75
2019-05-02T20:04:22.217Z,8.75
2019-05-02T20:06:50.559Z,8.75
2019-05-02T20:09:19.055Z,8.76
2019-05-02T20:11:47.339Z,8.77
2019-05-02T20:14:15.669Z,8.74
2019-05-02T20:16:46.699Z,8.73
2019-05-02T20:19:17.312Z,8.69
2019-05-02T20:21:49.185Z,8.65
2019-05-02T20:24:19.432Z,8.62
2019-05-02T20:26:52.502Z,8.59
2019-05-02T20:29:17.361Z,8.58
2019-05-02T20:31:45.664Z,8.55
2019-05-02T20:34:13.876Z,8.53
2019-05-02T20:36:42.587Z,8.48
2019-05-02T20:39:11.885Z,8.45
2019-05-02T20:41:41.968Z,8.42
2019-05-02T20:44:12.012Z,8.38
2019-05-02T20:46:42.026Z,8.34
2019-05-02T20:49:10.164Z,8.25
2019-05-02T20:51:38.727Z,8.14
2019-05-02T20:54:07.355Z,8.08
2019-05-02T20:56:35.689Z,8.04
2019-05-02T20:59:04.512Z,8.00
2019-05-02T21:01:32.767Z,7.92
2019-05-02T21:04:02.719Z,7.87
2019-05-02T21:06:40.829Z,7.81
2019-05-02T21:09:21.783Z,7.78
2019-05-02T21:11:54.338Z,7.73
2019-05-02T21:14:22.536Z,7.62
2019-05-02T21:16:51.084Z,7.56
2019-05-02T21:19:21.634Z,7.50
2019-05-02T21:21:49.471Z,7.47
2019-05-02T21:24:17.680Z,7.42
2019-05-02T21:26:45.884Z,7.34
2019-05-02T21:29:14.404Z,7.26
2019-05-02T21:31:42.919Z,7.25
2019-05-02T21:34:11.767Z,7.27
2019-05-02T21:36:40.080Z,7.36
2019-05-02T21:39:11.921Z,7.40
2019-05-02T21:41:42.014Z,7.43
2019-05-02T21:44:10.431Z,7.43
2019-05-02T21:46:38.632Z,7.42
2019-05-02T21:49:06.914Z,7.37
2019-05-02T21:51:39.247Z,7.27
2019-05-02T21:54:17.912Z,7.19
2019-05-02T21:56:53.501Z,7.12
2019-05-02T21:59:22.487Z,7.06
2019-05-02T22:01:52.637Z,7.00
2019-05-02T22:04:22.468Z,6.93
2019-05-02T22:06:52.206Z,6.86
2019-05-02T22:09:22.844Z,6.80
2019-05-02T22:11:52.004Z,6.78
2019-05-02T22:14:22.308Z,6.80
2019-05-02T22:16:52.981Z,6.87
2019-05-02T22:19:21.200Z,6.95
2019-05-02T22:21:49.729Z,7.03
2019-05-02T22:24:17.962Z,7.10
2019-05-02T22:26:46.189Z,7.12
2019-05-02T22:29:15.444Z,7.10
2019-05-02T22:31:43.651Z,7.04
2019-05-02T22:34:12.853Z,6.95
2019-05-02T22:36:41.723Z,6.84
2019-05-02T22:39:22.125Z,6.74
2019-05-02T22:41:52.474Z,6.66
2019-05-02T22:44:21.886Z,6.60
2019-05-02T22:46:51.952Z,6.54
2019-05-02T22:49:22.343Z,6.48
2019-05-02T22:51:50.075Z,6.45
2019-05-02T22:54:27.856Z,6.40
2019-05-02T22:56:48.412Z,6.36
2019-05-02T22:59:16.629Z,6.35
2019-05-02T23:01:44.877Z,6.31
2019-05-02T23:04:13.072Z,6.29
2019-05-02T23:06:43.976Z,6.25
2019-05-02T23:09:12.723Z,6.23
2019-05-02T23:11:42.505Z,6.20
2019-05-02T23:14:11.360Z,6.20
2019-05-02T23:16:42.376Z,6.18
2019-05-02T23:19:12.049Z,6.18
2019-05-02T23:21:41.921Z,6.20
2019-05-02T23:24:14.490Z,6.27
2019-05-02T23:26:43.804Z,6.34
2019-05-02T23:29:13.710Z,6.39
2019-05-02T23:31:42.258Z,6.33
2019-05-02T23:34:10.620Z,6.25
2019-05-02T23:36:38.866Z,6.15
2019-05-02T23:39:07.854Z,6.08
2019-05-02T23:41:36.206Z,6.02
2019-05-02T23:44:04.404Z,5.99
2019-05-02T23:46:32.992Z,5.96
2019-05-02T23:49:02.040Z,5.93
2019-05-02T23:51:32.144Z,5.90
2019-05-02T23:54:02.074Z,5.88
2019-05-02T23:56:32.283Z,5.87
2019-05-02T23:59:02.535Z,5.89
